sensor_id;sensor_type;location;lat;lon;timestamp;P1;durP1;ratioP1;P2;durP2;ratioP2
62848;SDS011;48941;49.516;8.286;2022-09-09T00:00:59;4.70;;;1.58;;
62848;SDS011;48941;49.516;8.286;2022-09-09T00:03:39;3.35;;;1.50;;
62848;SDS011;48941;49.516;8.286;2022-09-09T00:06:16;3.53;;;1.42;;
62848;SDS011;48941;49.516;8.286;2022-09-09T00:08:52;2.78;;;1.42;;
62848;SDS011;48941;49.516;8.286;2022-09-09T00:11:32;3.92;;;1.50;;
62848;SDS011;48941;49.516;8.286;2022-09-09T00:14:08;5.07;;;1.40;;
62848;SDS011;48941;49.516;8.286;2022-09-09T00:16:45;3.40;;;1.48;;
62848;SDS011;48941;49.516;8.286;2022-09-09T00:19:20;4.18;;;1.70;;
62848;SDS011;48941;49.516;8.286;2022-09-09T00:21:57;5.03;;;1.50;;
62848;SDS011;48941;49.516;8.286;2022-09-09T00:24:36;2.30;;;1.55;;
62848;SDS011;48941;49.516;8.286;2022-09-09T00:27:11;4.82;;;1.50;;
62848;SDS011;48941;49.516;8.286;2022-09-09T00:29:47;4.10;;;1.63;;
62848;SDS011;48941;49.516;8.286;2022-09-09T00:32:20;3.00;;;1.50;;
62848;SDS011;48941;49.516;8.286;2022-09-09T00:34:49;5.30;;;1.58;;
62848;SDS011;48941;49.516;8.286;2022-09-09T00:37:22;3.03;;;1.45;;
62848;SDS011;48941;49.516;8.286;2022-09-09T00:39:53;3.40;;;1.70;;
62848;SDS011;48941;49.516;8.286;2022-09-09T00:42:26;3.92;;;1.50;;
62848;SDS011;48941;49.516;8.286;2022-09-09T00:45:09;3.75;;;1.83;;
62848;SDS011;48941;49.516;8.286;2022-09-09T00:47:53;7.47;;;1.60;;
62848;SDS011;48941;49.516;8.286;2022-09-09T00:50:29;3.30;;;1.40;;
62848;SDS011;48941;49.516;8.286;2022-09-09T00:53:12;2.78;;;1.40;;
62848;SDS011;48941;49.516;8.286;2022-09-09T00:55:52;6.07;;;2.08;;
62848;SDS011;48941;49.516;8.286;2022-09-09T00:58:27;3.70;;;1.63;;
62848;SDS011;48941;49.516;8.286;2022-09-09T01:00:56;2.78;;;1.25;;
62848;SDS011;48941;49.516;8.286;2022-09-09T01:03:34;3.70;;;1.30;;
62848;SDS011;48941;49.516;8.286;2022-09-09T01:06:11;3.15;;;1.33;;
62848;SDS011;48941;49.516;8.286;2022-09-09T01:09:00;3.55;;;1.25;;
62848;SDS011;48941;49.516;8.286;2022-09-09T01:11:37;2.47;;;1.30;;
62848;SDS011;48941;49.516;8.286;2022-09-09T01:14:16;2.70;;;1.30;;
62848;SDS011;48941;49.516;8.286;2022-09-09T01:16:52;1.55;;;1.42;;
62848;SDS011;48941;49.516;8.286;2022-09-09T01:19:24;3.22;;;1.40;;
62848;SDS011;48941;49.516;8.286;2022-09-09T01:22:06;2.80;;;1.40;;
62848;SDS011;48941;49.516;8.286;2022-09-09T01:25:01;5.13;;;1.50;;
62848;SDS011;48941;49.516;8.286;2022-09-09T01:28:04;6.18;;;1.55;;
62848;SDS011;48941;49.516;8.286;2022-09-09T01:30:38;3.45;;;1.25;;
62848;SDS011;48941;49.516;8.286;2022-09-09T01:33:08;3.72;;;1.52;;
62848;SDS011;48941;49.516;8.286;2022-09-09T01:35:42;4.68;;;1.23;;
62848;SDS011;48941;49.516;8.286;2022-09-09T01:38:14;3.88;;;1.42;;
62848;SDS011;48941;49.516;8.286;2022-09-09T01:40:43;1.45;;;0.93;;
62848;SDS011;48941;49.516;8.286;2022-09-09T01:43:12;6.95;;;1.40;;
62848;SDS011;48941;49.516;8.286;2022-09-09T01:45:40;2.00;;;1.10;;
62848;SDS011;48941;49.516;8.286;2022-09-09T01:48:10;2.03;;;1.02;;
62848;SDS011;48941;49.516;8.286;2022-09-09T01:50:38;1.92;;;1.17;;
62848;SDS011;48941;49.516;8.286;2022-09-09T01:53:06;4.03;;;1.50;;
62848;SDS011;48941;49.516;8.286;2022-09-09T01:55:36;2.50;;;1.40;;
62848;SDS011;48941;49.516;8.286;2022-09-09T01:58:10;4.20;;;1.20;;
62848;SDS011;48941;49.516;8.286;2022-09-09T02:00:48;5.82;;;1.38;;
62848;SDS011;48941;49.516;8.286;2022-09-09T02:03:27;1.55;;;1.20;;
62848;SDS011;48941;49.516;8.286;2022-09-09T02:05:58;2.30;;;1.30;;
62848;SDS011;48941;49.516;8.286;2022-09-09T02:08:33;3.50;;;1.30;;
62848;SDS011;48941;49.516;8.286;2022-09-09T02:11:08;4.80;;;1.40;;
62848;SDS011;48941;49.516;8.286;2022-09-09T02:13:43;4.85;;;1.58;;
62848;SDS011;48941;49.516;8.286;2022-09-09T02:16:13;2.05;;;1.40;;
62848;SDS011;48941;49.516;8.286;2022-09-09T02:18:47;3.28;;;1.40;;
62848;SDS011;48941;49.516;8.286;2022-09-09T02:21:18;7.45;;;1.90;;
62848;SDS011;48941;49.516;8.286;2022-09-09T02:23:47;2.38;;;1.38;;
62848;SDS011;48941;49.516;8.286;2022-09-09T02:26:18;5.60;;;1.40;;
62848;SDS011;48941;49.516;8.286;2022-09-09T02:28:51;3.90;;;1.40;;
62848;SDS011;48941;49.516;8.286;2022-09-09T02:31:22;2.55;;;1.40;;
62848;SDS011;48941;49.516;8.286;2022-09-09T02:33:53;2.65;;;1.35;;
62848;SDS011;48941;49.516;8.286;2022-09-09T02:36:24;4.40;;;1.40;;
62848;SDS011;48941;49.516;8.286;2022-09-09T02:38:55;1.40;;;1.30;;
62848;SDS011;48941;49.516;8.286;2022-09-09T02:41:24;2.55;;;1.20;;
62848;SDS011;48941;49.516;8.286;2022-09-09T02:43:56;2.50;;;1.20;;
62848;SDS011;48941;49.516;8.286;2022-09-09T02:46:27;2.35;;;1.50;;
62848;SDS011;48941;49.516;8.286;2022-09-09T02:49:06;1.95;;;1.27;;
62848;SDS011;48941;49.516;8.286;2022-09-09T02:51:39;3.63;;;1.58;;
62848;SDS011;48941;49.516;8.286;2022-09-09T02:54:16;6.20;;;1.50;;
62848;SDS011;48941;49.516;8.286;2022-09-09T02:56:51;3.15;;;1.45;;
62848;SDS011;48941;49.516;8.286;2022-09-09T02:59:22;1.83;;;1.20;;
62848;SDS011;48941;49.516;8.286;2022-09-09T03:01:52;4.68;;;1.60;;
62848;SDS011;48941;49.516;8.286;2022-09-09T03:04:20;6.95;;;1.40;;
62848;SDS011;48941;49.516;8.286;2022-09-09T03:06:48;3.17;;;1.42;;
62848;SDS011;48941;49.516;8.286;2022-09-09T03:09:16;3.83;;;1.58;;
62848;SDS011;48941;49.516;8.286;2022-09-09T03:11:44;7.05;;;1.85;;
62848;SDS011;48941;49.516;8.286;2022-09-09T03:14:12;3.42;;;1.55;;
62848;SDS011;48941;49.516;8.286;2022-09-09T03:16:41;2.50;;;1.40;;
62848;SDS011;48941;49.516;8.286;2022-09-09T03:19:09;4.00;;;1.40;;
62848;SDS011;48941;49.516;8.286;2022-09-09T03:21:37;3.55;;;1.27;;
62848;SDS011;48941;49.516;8.286;2022-09-09T03:24:04;4.38;;;1.40;;
62848;SDS011;48941;49.516;8.286;2022-09-09T03:26:32;5.35;;;1.55;;
62848;SDS011;48941;49.516;8.286;2022-09-09T03:29:00;4.95;;;1.80;;
62848;SDS011;48941;49.516;8.286;2022-09-09T03:31:28;2.47;;;1.48;;
62848;SDS011;48941;49.516;8.286;2022-09-09T03:33:58;8.95;;;1.90;;
62848;SDS011;48941;49.516;8.286;2022-09-09T03:36:26;7.07;;;1.50;;
62848;SDS011;48941;49.516;8.286;2022-09-09T03:38:54;7.45;;;1.45;;
62848;SDS011;48941;49.516;8.286;2022-09-09T03:41:22;8.63;;;1.70;;
62848;SDS011;48941;49.516;8.286;2022-09-09T03:43:51;4.95;;;1.67;;
62848;SDS011;48941;49.516;8.286;2022-09-09T03:46:18;3.88;;;1.52;;
62848;SDS011;48941;49.516;8.286;2022-09-09T03:48:46;6.90;;;1.70;;
62848;SDS011;48941;49.516;8.286;2022-09-09T03:51:15;3.20;;;1.40;;
62848;SDS011;48941;49.516;8.286;2022-09-09T03:53:44;4.47;;;1.63;;
62848;SDS011;48941;49.516;8.286;2022-09-09T03:56:12;3.05;;;2.03;;
62848;SDS011;48941;49.516;8.286;2022-09-09T03:58:40;3.50;;;1.60;;
62848;SDS011;48941;49.516;8.286;2022-09-09T04:01:09;7.60;;;1.92;;
62848;SDS011;48941;49.516;8.286;2022-09-09T04:03:39;8.25;;;1.95;;
62848;SDS011;48941;49.516;8.286;2022-09-09T04:06:09;6.05;;;1.83;;
62848;SDS011;48941;49.516;8.286;2022-09-09T04:08:39;5.63;;;1.67;;
62848;SDS011;48941;49.516;8.286;2022-09-09T04:11:08;3.20;;;1.50;;
62848;SDS011;48941;49.516;8.286;2022-09-09T04:13:36;8.93;;;1.88;;
62848;SDS011;48941;49.516;8.286;2022-09-09T04:16:06;6.70;;;1.77;;
62848;SDS011;48941;49.516;8.286;2022-09-09T04:18:34;2.85;;;1.45;;
62848;SDS011;48941;49.516;8.286;2022-09-09T04:21:02;3.15;;;1.38;;
62848;SDS011;48941;49.516;8.286;2022-09-09T04:23:32;4.32;;;1.50;;
62848;SDS011;48941;49.516;8.286;2022-09-09T04:26:02;3.00;;;1.48;;
62848;SDS011;48941;49.516;8.286;2022-09-09T04:28:31;5.75;;;1.70;;
62848;SDS011;48941;49.516;8.286;2022-09-09T04:31:05;6.13;;;1.85;;
62848;SDS011;48941;49.516;8.286;2022-09-09T04:33:34;3.53;;;1.60;;
62848;SDS011;48941;49.516;8.286;2022-09-09T04:36:06;3.97;;;1.50;;
62848;SDS011;48941;49.516;8.286;2022-09-09T04:38:34;3.85;;;1.45;;
62848;SDS011;48941;49.516;8.286;2022-09-09T04:41:03;3.38;;;1.27;;
62848;SDS011;48941;49.516;8.286;2022-09-09T04:43:32;6.53;;;1.42;;
62848;SDS011;48941;49.516;8.286;2022-09-09T04:46:00;5.38;;;1.48;;
62848;SDS011;48941;49.516;8.286;2022-09-09T04:48:28;3.72;;;1.40;;
62848;SDS011;48941;49.516;8.286;2022-09-09T04:50:57;3.33;;;1.30;;
62848;SDS011;48941;49.516;8.286;2022-09-09T04:53:27;5.97;;;1.40;;
62848;SDS011;48941;49.516;8.286;2022-09-09T04:56:00;4.47;;;1.20;;
62848;SDS011;48941;49.516;8.286;2022-09-09T04:58:30;4.13;;;1.20;;
62848;SDS011;48941;49.516;8.286;2022-09-09T05:01:05;4.25;;;1.48;;
62848;SDS011;48941;49.516;8.286;2022-09-09T05:03:34;7.55;;;1.55;;
62848;SDS011;48941;49.516;8.286;2022-09-09T05:06:07;3.30;;;1.33;;
62848;SDS011;48941;49.516;8.286;2022-09-09T05:08:37;2.28;;;1.13;;
62848;SDS011;48941;49.516;8.286;2022-09-09T05:11:12;3.50;;;1.30;;
62848;SDS011;48941;49.516;8.286;2022-09-09T05:13:43;4.45;;;1.10;;
62848;SDS011;48941;49.516;8.286;2022-09-09T05:16:11;5.00;;;1.33;;
62848;SDS011;48941;49.516;8.286;2022-09-09T05:18:39;5.85;;;1.50;;
62848;SDS011;48941;49.516;8.286;2022-09-09T05:21:09;7.38;;;1.63;;
62848;SDS011;48941;49.516;8.286;2022-09-09T05:23:37;9.00;;;1.17;;
62848;SDS011;48941;49.516;8.286;2022-09-09T05:26:05;4.15;;;1.20;;
62848;SDS011;48941;49.516;8.286;2022-09-09T05:28:34;3.25;;;1.30;;
62848;SDS011;48941;49.516;8.286;2022-09-09T05:31:05;2.13;;;1.20;;
62848;SDS011;48941;49.516;8.286;2022-09-09T05:33:34;6.60;;;1.23;;
62848;SDS011;48941;49.516;8.286;2022-09-09T05:36:04;4.03;;;1.30;;
62848;SDS011;48941;49.516;8.286;2022-09-09T05:38:34;5.78;;;1.20;;
62848;SDS011;48941;49.516;8.286;2022-09-09T05:41:02;5.88;;;1.60;;
62848;SDS011;48941;49.516;8.286;2022-09-09T05:43:31;5.95;;;1.33;;
62848;SDS011;48941;49.516;8.286;2022-09-09T05:45:59;4.70;;;1.00;;
62848;SDS011;48941;49.516;8.286;2022-09-09T05:48:30;4.70;;;1.65;;
62848;SDS011;48941;49.516;8.286;2022-09-09T05:50:59;3.63;;;1.63;;
62848;SDS011;48941;49.516;8.286;2022-09-09T05:53:28;10.55;;;1.63;;
62848;SDS011;48941;49.516;8.286;2022-09-09T05:55:59;2.78;;;1.25;;
62848;SDS011;48941;49.516;8.286;2022-09-09T05:58:29;2.88;;;1.08;;
62848;SDS011;48941;49.516;8.286;2022-09-09T06:01:01;3.03;;;1.40;;
62848;SDS011;48941;49.516;8.286;2022-09-09T06:03:32;4.47;;;1.38;;
62848;SDS011;48941;49.516;8.286;2022-09-09T06:06:02;2.72;;;1.48;;
62848;SDS011;48941;49.516;8.286;2022-09-09T06:08:32;4.05;;;1.25;;
62848;SDS011;48941;49.516;8.286;2022-09-09T06:11:00;2.45;;;1.20;;
62848;SDS011;48941;49.516;8.286;2022-09-09T06:13:30;8.70;;;1.60;;
62848;SDS011;48941;49.516;8.286;2022-09-09T06:15:58;3.35;;;1.20;;
62848;SDS011;48941;49.516;8.286;2022-09-09T06:18:27;5.15;;;1.40;;
62848;SDS011;48941;49.516;8.286;2022-09-09T06:20:57;6.10;;;1.23;;
62848;SDS011;48941;49.516;8.286;2022-09-09T06:23:27;4.80;;;1.27;;
62848;SDS011;48941;49.516;8.286;2022-09-09T06:26:02;3.60;;;1.23;;
62848;SDS011;48941;49.516;8.286;2022-09-09T06:28:33;5.53;;;1.52;;
62848;SDS011;48941;49.516;8.286;2022-09-09T06:31:01;2.50;;;1.10;;
62848;SDS011;48941;49.516;8.286;2022-09-09T06:33:30;3.78;;;1.25;;
62848;SDS011;48941;49.516;8.286;2022-09-09T06:36:02;3.55;;;1.35;;
62848;SDS011;48941;49.516;8.286;2022-09-09T06:38:31;2.90;;;1.20;;
62848;SDS011;48941;49.516;8.286;2022-09-09T06:40:59;2.83;;;1.35;;
62848;SDS011;48941;49.516;8.286;2022-09-09T06:43:28;3.28;;;1.40;;
62848;SDS011;48941;49.516;8.286;2022-09-09T06:45:56;6.95;;;1.90;;
62848;SDS011;48941;49.516;8.286;2022-09-09T06:48:25;3.95;;;1.40;;
62848;SDS011;48941;49.516;8.286;2022-09-09T06:51:00;4.40;;;1.38;;
62848;SDS011;48941;49.516;8.286;2022-09-09T06:53:30;5.18;;;1.35;;
62848;SDS011;48941;49.516;8.286;2022-09-09T06:55:59;4.63;;;1.42;;
62848;SDS011;48941;49.516;8.286;2022-09-09T06:58:28;4.30;;;1.40;;
62848;SDS011;48941;49.516;8.286;2022-09-09T07:01:01;3.38;;;1.65;;
62848;SDS011;48941;49.516;8.286;2022-09-09T07:03:30;6.13;;;1.80;;
62848;SDS011;48941;49.516;8.286;2022-09-09T07:05:58;4.63;;;1.50;;
62848;SDS011;48941;49.516;8.286;2022-09-09T07:08:27;4.65;;;1.33;;
62848;SDS011;48941;49.516;8.286;2022-09-09T07:11:01;4.18;;;1.45;;
62848;SDS011;48941;49.516;8.286;2022-09-09T07:13:36;5.38;;;1.50;;
62848;SDS011;48941;49.516;8.286;2022-09-09T07:16:04;4.78;;;1.30;;
62848;SDS011;48941;49.516;8.286;2022-09-09T07:18:33;4.85;;;1.40;;
62848;SDS011;48941;49.516;8.286;2022-09-09T07:21:02;5.97;;;1.65;;
62848;SDS011;48941;49.516;8.286;2022-09-09T07:23:32;5.20;;;1.30;;
62848;SDS011;48941;49.516;8.286;2022-09-09T07:26:02;5.47;;;1.67;;
62848;SDS011;48941;49.516;8.286;2022-09-09T07:31:02;4.55;;;1.60;;
62848;SDS011;48941;49.516;8.286;2022-09-09T07:33:31;4.75;;;1.70;;
62848;SDS011;48941;49.516;8.286;2022-09-09T07:36:04;5.57;;;1.58;;
62848;SDS011;48941;49.516;8.286;2022-09-09T07:38:39;8.70;;;1.60;;
62848;SDS011;48941;49.516;8.286;2022-09-09T07:41:10;5.68;;;1.30;;
62848;SDS011;48941;49.516;8.286;2022-09-09T07:43:39;4.95;;;1.50;;
62848;SDS011;48941;49.516;8.286;2022-09-09T07:46:07;8.45;;;1.70;;
62848;SDS011;48941;49.516;8.286;2022-09-09T07:48:36;9.73;;;1.98;;
62848;SDS011;48941;49.516;8.286;2022-09-09T07:51:05;7.28;;;1.60;;
62848;SDS011;48941;49.516;8.286;2022-09-09T07:53:34;8.95;;;1.63;;
62848;SDS011;48941;49.516;8.286;2022-09-09T07:56:04;10.20;;;1.73;;
62848;SDS011;48941;49.516;8.286;2022-09-09T08:01:08;8.00;;;1.73;;
62848;SDS011;48941;49.516;8.286;2022-09-09T08:03:38;5.97;;;1.83;;
62848;SDS011;48941;49.516;8.286;2022-09-09T08:06:07;3.05;;;1.40;;
62848;SDS011;48941;49.516;8.286;2022-09-09T08:08:35;4.45;;;1.50;;
62848;SDS011;48941;49.516;8.286;2022-09-09T08:11:07;7.13;;;1.48;;
62848;SDS011;48941;49.516;8.286;2022-09-09T08:13:37;2.83;;;1.55;;
62848;SDS011;48941;49.516;8.286;2022-09-09T08:16:07;3.95;;;1.35;;
62848;SDS011;48941;49.516;8.286;2022-09-09T08:18:37;4.80;;;1.30;;
62848;SDS011;48941;49.516;8.286;2022-09-09T08:21:07;9.93;;;1.60;;
62848;SDS011;48941;49.516;8.286;2022-09-09T08:23:38;6.43;;;1.40;;
62848;SDS011;48941;49.516;8.286;2022-09-09T08:26:09;8.10;;;1.60;;
62848;SDS011;48941;49.516;8.286;2022-09-09T08:28:38;4.38;;;1.30;;
62848;SDS011;48941;49.516;8.286;2022-09-09T08:31:07;5.28;;;1.42;;
62848;SDS011;48941;49.516;8.286;2022-09-09T08:33:37;6.47;;;1.33;;
62848;SDS011;48941;49.516;8.286;2022-09-09T08:36:06;4.63;;;1.17;;
62848;SDS011;48941;49.516;8.286;2022-09-09T08:38:36;1.98;;;1.20;;
62848;SDS011;48941;49.516;8.286;2022-09-09T08:44:04;3.78;;;1.38;;
62848;SDS011;48941;49.516;8.286;2022-09-09T08:46:39;5.10;;;1.42;;
62848;SDS011;48941;49.516;8.286;2022-09-09T08:49:22;5.95;;;1.50;;
62848;SDS011;48941;49.516;8.286;2022-09-09T08:52:13;2.83;;;1.30;;
62848;SDS011;48941;49.516;8.286;2022-09-09T08:54:45;6.00;;;1.77;;
62848;SDS011;48941;49.516;8.286;2022-09-09T08:57:20;5.85;;;1.75;;
62848;SDS011;48941;49.516;8.286;2022-09-09T08:59:53;3.65;;;1.23;;
62848;SDS011;48941;49.516;8.286;2022-09-09T09:02:24;6.30;;;1.40;;
62848;SDS011;48941;49.516;8.286;2022-09-09T09:05:00;5.22;;;1.42;;
62848;SDS011;48941;49.516;8.286;2022-09-09T09:07:44;3.58;;;1.50;;
62848;SDS011;48941;49.516;8.286;2022-09-09T09:10:25;5.38;;;1.45;;
62848;SDS011;48941;49.516;8.286;2022-09-09T09:13:12;4.28;;;1.58;;
62848;SDS011;48941;49.516;8.286;2022-09-09T09:15:42;5.20;;;1.48;;
62848;SDS011;48941;49.516;8.286;2022-09-09T09:18:13;3.20;;;1.30;;
62848;SDS011;48941;49.516;8.286;2022-09-09T09:20:45;4.90;;;1.40;;
62848;SDS011;48941;49.516;8.286;2022-09-09T09:23:22;5.70;;;1.70;;
62848;SDS011;48941;49.516;8.286;2022-09-09T09:25:53;7.70;;;1.70;;
62848;SDS011;48941;49.516;8.286;2022-09-09T09:28:27;4.07;;;1.50;;
62848;SDS011;48941;49.516;8.286;2022-09-09T09:30:59;3.55;;;1.27;;
62848;SDS011;48941;49.516;8.286;2022-09-09T09:33:34;6.28;;;1.60;;
62848;SDS011;48941;49.516;8.286;2022-09-09T09:36:12;7.97;;;1.98;;
62848;SDS011;48941;49.516;8.286;2022-09-09T09:38:51;6.90;;;1.60;;
62848;SDS011;48941;49.516;8.286;2022-09-09T09:41:42;5.97;;;1.70;;
62848;SDS011;48941;49.516;8.286;2022-09-09T09:44:22;3.63;;;1.60;;
62848;SDS011;48941;49.516;8.286;2022-09-09T09:46:52;5.20;;;1.88;;
62848;SDS011;48941;49.516;8.286;2022-09-09T09:49:20;5.10;;;1.63;;
62848;SDS011;48941;49.516;8.286;2022-09-09T09:51:48;5.85;;;1.60;;
62848;SDS011;48941;49.516;8.286;2022-09-09T09:54:17;6.22;;;1.70;;
62848;SDS011;48941;49.516;8.286;2022-09-09T09:56:51;3.70;;;1.42;;
62848;SDS011;48941;49.516;8.286;2022-09-09T09:59:22;9.40;;;1.70;;
62848;SDS011;48941;49.516;8.286;2022-09-09T10:02:06;8.45;;;1.60;;
62848;SDS011;48941;49.516;8.286;2022-09-09T10:04:41;3.58;;;1.40;;
62848;SDS011;48941;49.516;8.286;2022-09-09T10:07:10;5.43;;;1.50;;
62848;SDS011;48941;49.516;8.286;2022-09-09T10:09:38;6.80;;;1.60;;
62848;SDS011;48941;49.516;8.286;2022-09-09T10:12:10;7.43;;;1.60;;
62848;SDS011;48941;49.516;8.286;2022-09-09T10:17:27;5.32;;;1.65;;
62848;SDS011;48941;49.516;8.286;2022-09-09T10:22:58;4.07;;;1.33;;
62848;SDS011;48941;49.516;8.286;2022-09-09T10:25:37;5.97;;;1.63;;
62848;SDS011;48941;49.516;8.286;2022-09-09T10:28:29;3.53;;;1.73;;
62848;SDS011;48941;49.516;8.286;2022-09-09T10:31:21;4.78;;;1.33;;
62848;SDS011;48941;49.516;8.286;2022-09-09T10:33:57;4.32;;;1.40;;
62848;SDS011;48941;49.516;8.286;2022-09-09T10:36:35;3.50;;;1.40;;
62848;SDS011;48941;49.516;8.286;2022-09-09T10:39:14;4.20;;;1.48;;
62848;SDS011;48941;49.516;8.286;2022-09-09T10:41:54;3.45;;;1.38;;
62848;SDS011;48941;49.516;8.286;2022-09-09T10:44:30;4.22;;;1.25;;
62848;SDS011;48941;49.516;8.286;2022-09-09T10:47:28;6.53;;;1.58;;
62848;SDS011;48941;49.516;8.286;2022-09-09T10:50:15;9.40;;;1.60;;
62848;SDS011;48941;49.516;8.286;2022-09-09T10:53:14;6.10;;;1.60;;
62848;SDS011;48941;49.516;8.286;2022-09-09T10:55:51;4.60;;;1.65;;
62848;SDS011;48941;49.516;8.286;2022-09-09T10:58:24;4.43;;;1.50;;
62848;SDS011;48941;49.516;8.286;2022-09-09T11:00:56;2.88;;;1.30;;
62848;SDS011;48941;49.516;8.286;2022-09-09T11:03:31;5.03;;;1.67;;
62848;SDS011;48941;49.516;8.286;2022-09-09T11:06:01;5.25;;;1.58;;
62848;SDS011;48941;49.516;8.286;2022-09-09T11:08:34;6.35;;;1.55;;
62848;SDS011;48941;49.516;8.286;2022-09-09T11:11:06;4.57;;;1.50;;
62848;SDS011;48941;49.516;8.286;2022-09-09T11:13:39;10.18;;;1.60;;
62848;SDS011;48941;49.516;8.286;2022-09-09T11:16:15;7.32;;;1.80;;
62848;SDS011;48941;49.516;8.286;2022-09-09T11:18:51;4.82;;;1.60;;
62848;SDS011;48941;49.516;8.286;2022-09-09T11:21:26;4.75;;;1.23;;
62848;SDS011;48941;49.516;8.286;2022-09-09T11:23:58;4.85;;;1.52;;
62848;SDS011;48941;49.516;8.286;2022-09-09T11:26:32;4.63;;;1.33;;
62848;SDS011;48941;49.516;8.286;2022-09-09T11:29:16;3.38;;;1.30;;
62848;SDS011;48941;49.516;8.286;2022-09-09T11:32:00;4.47;;;1.42;;
62848;SDS011;48941;49.516;8.286;2022-09-09T11:34:46;5.68;;;1.77;;
62848;SDS011;48941;49.516;8.286;2022-09-09T11:40:36;8.27;;;1.50;;
62848;SDS011;48941;49.516;8.286;2022-09-09T11:43:08;7.85;;;1.73;;
62848;SDS011;48941;49.516;8.286;2022-09-09T11:45:39;6.78;;;1.90;;
62848;SDS011;48941;49.516;8.286;2022-09-09T11:48:22;7.65;;;1.80;;
62848;SDS011;48941;49.516;8.286;2022-09-09T11:51:00;4.03;;;1.70;;
62848;SDS011;48941;49.516;8.286;2022-09-09T11:53:31;6.22;;;1.95;;
62848;SDS011;48941;49.516;8.286;2022-09-09T11:56:03;9.18;;;2.08;;
62848;SDS011;48941;49.516;8.286;2022-09-09T11:58:42;7.40;;;2.03;;
62848;SDS011;48941;49.516;8.286;2022-09-09T12:01:27;8.05;;;2.33;;
62848;SDS011;48941;49.516;8.286;2022-09-09T12:04:05;7.68;;;1.92;;
62848;SDS011;48941;49.516;8.286;2022-09-09T12:06:48;6.22;;;1.75;;
62848;SDS011;48941;49.516;8.286;2022-09-09T12:09:22;6.05;;;1.50;;
62848;SDS011;48941;49.516;8.286;2022-09-09T12:12:04;4.72;;;1.50;;
62848;SDS011;48941;49.516;8.286;2022-09-09T12:14:35;11.75;;;1.90;;
62848;SDS011;48941;49.516;8.286;2022-09-09T12:17:17;6.82;;;2.08;;
62848;SDS011;48941;49.516;8.286;2022-09-09T12:19:48;9.48;;;1.90;;
62848;SDS011;48941;49.516;8.286;2022-09-09T12:25:06;5.40;;;1.73;;
62848;SDS011;48941;49.516;8.286;2022-09-09T12:27:51;7.70;;;1.50;;
62848;SDS011;48941;49.516;8.286;2022-09-09T12:30:29;3.55;;;1.60;;
62848;SDS011;48941;49.516;8.286;2022-09-09T12:33:06;2.83;;;1.52;;
62848;SDS011;48941;49.516;8.286;2022-09-09T12:35:37;2.13;;;1.00;;
62848;SDS011;48941;49.516;8.286;2022-09-09T12:38:10;2.90;;;1.30;;
62848;SDS011;48941;49.516;8.286;2022-09-09T12:40:53;4.80;;;1.10;;
62848;SDS011;48941;49.516;8.286;2022-09-09T12:43:23;1.33;;;0.90;;
62848;SDS011;48941;49.516;8.286;2022-09-09T12:45:53;2.28;;;1.10;;
62848;SDS011;48941;49.516;8.286;2022-09-09T12:48:27;1.95;;;1.02;;
62848;SDS011;48941;49.516;8.286;2022-09-09T12:50:59;2.83;;;1.17;;
62848;SDS011;48941;49.516;8.286;2022-09-09T12:53:30;1.70;;;1.13;;
62848;SDS011;48941;49.516;8.286;2022-09-09T12:56:01;1.63;;;0.95;;
62848;SDS011;48941;49.516;8.286;2022-09-09T12:58:33;3.17;;;0.93;;
62848;SDS011;48941;49.516;8.286;2022-09-09T13:01:04;4.30;;;1.00;;
62848;SDS011;48941;49.516;8.286;2022-09-09T13:03:33;1.80;;;1.00;;
62848;SDS011;48941;49.516;8.286;2022-09-09T13:06:12;2.22;;;0.80;;
62848;SDS011;48941;49.516;8.286;2022-09-09T13:08:47;1.65;;;0.65;;
62848;SDS011;48941;49.516;8.286;2022-09-09T13:11:15;1.02;;;0.80;;
62848;SDS011;48941;49.516;8.286;2022-09-09T13:13:51;1.38;;;0.80;;
62848;SDS011;48941;49.516;8.286;2022-09-09T13:16:22;3.03;;;0.82;;
62848;SDS011;48941;49.516;8.286;2022-09-09T13:18:58;3.10;;;0.80;;
62848;SDS011;48941;49.516;8.286;2022-09-09T13:21:32;2.95;;;0.90;;
62848;SDS011;48941;49.516;8.286;2022-09-09T13:24:03;2.60;;;1.08;;
62848;SDS011;48941;49.516;8.286;2022-09-09T13:26:34;2.42;;;0.90;;
62848;SDS011;48941;49.516;8.286;2022-09-09T13:29:09;3.42;;;1.00;;
62848;SDS011;48941;49.516;8.286;2022-09-09T13:31:47;2.65;;;1.10;;
62848;SDS011;48941;49.516;8.286;2022-09-09T13:34:26;3.00;;;1.10;;
62848;SDS011;48941;49.516;8.286;2022-09-09T13:36:55;4.40;;;1.50;;
62848;SDS011;48941;49.516;8.286;2022-09-09T13:39:29;3.58;;;1.20;;
62848;SDS011;48941;49.516;8.286;2022-09-09T13:41:57;3.60;;;1.10;;
62848;SDS011;48941;49.516;8.286;2022-09-09T13:44:25;2.22;;;1.13;;
62848;SDS011;48941;49.516;8.286;2022-09-09T13:47:02;3.80;;;1.40;;
62848;SDS011;48941;49.516;8.286;2022-09-09T13:49:35;3.40;;;1.50;;
62848;SDS011;48941;49.516;8.286;2022-09-09T13:52:04;2.80;;;1.05;;
62848;SDS011;48941;49.516;8.286;2022-09-09T13:54:37;2.03;;;1.10;;
62848;SDS011;48941;49.516;8.286;2022-09-09T13:57:14;5.07;;;1.35;;
62848;SDS011;48941;49.516;8.286;2022-09-09T13:59:43;2.33;;;1.40;;
62848;SDS011;48941;49.516;8.286;2022-09-09T14:02:30;3.30;;;1.25;;
62848;SDS011;48941;49.516;8.286;2022-09-09T14:04:59;3.72;;;1.40;;
62848;SDS011;48941;49.516;8.286;2022-09-09T14:07:27;7.95;;;1.75;;
62848;SDS011;48941;49.516;8.286;2022-09-09T14:09:56;4.82;;;1.52;;
62848;SDS011;48941;49.516;8.286;2022-09-09T14:12:26;7.00;;;1.30;;
62848;SDS011;48941;49.516;8.286;2022-09-09T14:14:54;3.92;;;1.40;;
62848;SDS011;48941;49.516;8.286;2022-09-09T14:17:22;4.82;;;1.38;;
62848;SDS011;48941;49.516;8.286;2022-09-09T14:19:51;5.45;;;1.38;;
62848;SDS011;48941;49.516;8.286;2022-09-09T14:22:19;10.88;;;1.58;;
62848;SDS011;48941;49.516;8.286;2022-09-09T14:24:47;3.25;;;1.40;;
62848;SDS011;48941;49.516;8.286;2022-09-09T14:27:17;1.95;;;1.08;;
62848;SDS011;48941;49.516;8.286;2022-09-09T14:29:45;4.03;;;1.17;;
62848;SDS011;48941;49.516;8.286;2022-09-09T14:32:12;2.90;;;1.30;;
62848;SDS011;48941;49.516;8.286;2022-09-09T14:34:40;4.13;;;1.23;;
62848;SDS011;48941;49.516;8.286;2022-09-09T14:37:08;3.60;;;1.30;;
62848;SDS011;48941;49.516;8.286;2022-09-09T14:39:36;3.33;;;1.10;;
62848;SDS011;48941;49.516;8.286;2022-09-09T14:42:04;2.83;;;1.10;;
62848;SDS011;48941;49.516;8.286;2022-09-09T14:44:34;2.08;;;1.40;;
62848;SDS011;48941;49.516;8.286;2022-09-09T14:47:02;2.80;;;1.27;;
62848;SDS011;48941;49.516;8.286;2022-09-09T14:49:29;3.75;;;1.25;;
62848;SDS011;48941;49.516;8.286;2022-09-09T14:51:57;3.88;;;1.38;;
62848;SDS011;48941;49.516;8.286;2022-09-09T14:54:25;4.70;;;1.55;;
62848;SDS011;48941;49.516;8.286;2022-09-09T14:56:54;3.38;;;1.30;;
62848;SDS011;48941;49.516;8.286;2022-09-09T14:59:23;3.78;;;1.20;;
62848;SDS011;48941;49.516;8.286;2022-09-09T15:01:52;3.47;;;1.20;;
62848;SDS011;48941;49.516;8.286;2022-09-09T15:04:20;2.50;;;1.00;;
62848;SDS011;48941;49.516;8.286;2022-09-09T15:06:48;4.50;;;1.20;;
62848;SDS011;48941;49.516;8.286;2022-09-09T15:09:18;3.60;;;1.10;;
62848;SDS011;48941;49.516;8.286;2022-09-09T15:11:46;2.88;;;1.05;;
62848;SDS011;48941;49.516;8.286;2022-09-09T15:14:13;5.53;;;0.68;;
62848;SDS011;48941;49.516;8.286;2022-09-09T15:16:41;1.92;;;0.85;;
62848;SDS011;48941;49.516;8.286;2022-09-09T15:19:10;2.53;;;0.95;;
62848;SDS011;48941;49.516;8.286;2022-09-09T15:21:38;0.88;;;0.80;;
62848;SDS011;48941;49.516;8.286;2022-09-09T15:24:06;2.97;;;0.88;;
62848;SDS011;48941;49.516;8.286;2022-09-09T15:26:34;1.02;;;0.70;;
62848;SDS011;48941;49.516;8.286;2022-09-09T15:29:05;1.95;;;0.65;;
62848;SDS011;48941;49.516;8.286;2022-09-09T15:31:33;2.35;;;0.80;;
62848;SDS011;48941;49.516;8.286;2022-09-09T15:34:03;1.77;;;0.80;;
62848;SDS011;48941;49.516;8.286;2022-09-09T15:36:34;2.55;;;0.85;;
62848;SDS011;48941;49.516;8.286;2022-09-09T15:39:03;1.25;;;0.77;;